sensor_id;sensor_type;location;lat;lon;timestamp;temperature;humidity
53272;DHT22;39160;48.580;7.756;2023-11-19T00:02:05;10.20;99.90
53272;DHT22;39160;48.580;7.756;2023-11-19T00:06:58;10.20;99.90
53272;DHT22;39160;48.580;7.756;2023-11-19T00:11:54;10.20;99.90
53272;DHT22;39160;48.580;7.756;2023-11-19T00:16:44;10.20;99.90
53272;DHT22;39160;48.580;7.756;2023-11-19T00:21:35;10.20;99.90
53272;DHT22;39160;48.580;7.756;2023-11-19T00:26:26;10.30;99.90
53272;DHT22;39160;48.580;7.756;2023-11-19T00:31:17;10.30;99.90
53272;DHT22;39160;48.580;7.756;2023-11-19T00:36:08;10.40;99.90
53272;DHT22;39160;48.580;7.756;2023-11-19T00:40:59;10.30;99.90
53272;DHT22;39160;48.580;7.756;2023-11-19T00:45:49;10.40;99.90
53272;DHT22;39160;48.580;7.756;2023-11-19T00:50:41;10.30;99.90
53272;DHT22;39160;48.580;7.756;2023-11-19T00:55:34;10.30;99.90
53272;DHT22;39160;48.580;7.756;2023-11-19T01:00:25;10.30;99.90
53272;DHT22;39160;48.580;7.756;2023-11-19T01:05:17;10.30;99.90
53272;DHT22;39160;48.580;7.756;2023-11-19T01:10:11;10.30;99.90
53272;DHT22;39160;48.580;7.756;2023-11-19T01:15:02;10.30;99.90
53272;DHT22;39160;48.580;7.756;2023-11-19T01:19:53;10.40;99.90
53272;DHT22;39160;48.580;7.756;2023-11-19T01:24:43;10.40;99.90
53272;DHT22;39160;48.580;7.756;2023-11-19T01:29:34;10.40;99.90
53272;DHT22;39160;48.580;7.756;2023-11-19T01:34:25;10.40;99.90
53272;DHT22;39160;48.580;7.756;2023-11-19T01:39:16;10.40;99.90
53272;DHT22;39160;48.580;7.756;2023-11-19T01:44:06;10.50;99.90
53272;DHT22;39160;48.580;7.756;2023-11-19T01:48:57;10.50;99.90
53272;DHT22;39160;48.580;7.756;2023-11-19T01:53:48;10.50;99.90
53272;DHT22;39160;48.580;7.756;2023-11-19T01:58:40;10.60;99.90
53272;DHT22;39160;48.580;7.756;2023-11-19T02:03:32;10.60;99.90
53272;DHT22;39160;48.580;7.756;2023-11-19T02:08:23;10.60;99.90
53272;DHT22;39160;48.580;7.756;2023-11-19T02:13:14;10.60;99.90
53272;DHT22;39160;48.580;7.756;2023-11-19T02:18:19;10.60;99.90
53272;DHT22;39160;48.580;7.756;2023-11-19T02:23:10;10.60;99.90
53272;DHT22;39160;48.580;7.756;2023-11-19T02:28:02;10.70;99.90
53272;DHT22;39160;48.580;7.756;2023-11-19T02:32:54;10.60;99.90
53272;DHT22;39160;48.580;7.756;2023-11-19T02:37:48;10.70;99.90
53272;DHT22;39160;48.580;7.756;2023-11-19T02:42:38;10.80;99.90
53272;DHT22;39160;48.580;7.756;2023-11-19T02:47:29;10.80;99.90
53272;DHT22;39160;48.580;7.756;2023-11-19T02:52:20;10.80;99.90
53272;DHT22;39160;48.580;7.756;2023-11-19T02:57:11;10.80;99.90
53272;DHT22;39160;48.580;7.756;2023-11-19T03:02:04;10.90;99.90
53272;DHT22;39160;48.580;7.756;2023-11-19T03:06:56;10.90;99.90
53272;DHT22;39160;48.580;7.756;2023-11-19T03:11:48;10.90;99.90
53272;DHT22;39160;48.580;7.756;2023-11-19T03:16:40;10.90;99.90
53272;DHT22;39160;48.580;7.756;2023-11-19T03:21:31;10.90;99.90
53272;DHT22;39160;48.580;7.756;2023-11-19T03:26:21;10.90;99.90
53272;DHT22;39160;48.580;7.756;2023-11-19T03:31:12;10.90;99.90
53272;DHT22;39160;48.580;7.756;2023-11-19T03:36:03;11.00;99.90
53272;DHT22;39160;48.580;7.756;2023-11-19T03:40:54;11.00;99.90
53272;DHT22;39160;48.580;7.756;2023-11-19T03:45:44;11.00;99.90
53272;DHT22;39160;48.580;7.756;2023-11-19T03:50:36;11.00;99.90
53272;DHT22;39160;48.580;7.756;2023-11-19T03:55:27;11.00;99.90
53272;DHT22;39160;48.580;7.756;2023-11-19T04:00:20;11.10;99.90
53272;DHT22;39160;48.580;7.756;2023-11-19T04:05:11;11.10;99.90
53272;DHT22;39160;48.580;7.756;2023-11-19T04:10:02;11.10;99.90
53272;DHT22;39160;48.580;7.756;2023-11-19T04:14:53;11.10;99.90
53272;DHT22;39160;48.580;7.756;2023-11-19T04:19:43;11.20;99.90
53272;DHT22;39160;48.580;7.756;2023-11-19T04:24:37;11.20;99.90
53272;DHT22;39160;48.580;7.756;2023-11-19T04:29:30;11.20;99.90
53272;DHT22;39160;48.580;7.756;2023-11-19T04:34:21;11.30;99.90
53272;DHT22;39160;48.580;7.756;2023-11-19T04:39:12;11.30;99.90
53272;DHT22;39160;48.580;7.756;2023-11-19T04:44:04;11.30;99.90
53272;DHT22;39160;48.580;7.756;2023-11-19T04:48:55;11.30;99.90
53272;DHT22;39160;48.580;7.756;2023-11-19T04:53:45;11.30;99.90
53272;DHT22;39160;48.580;7.756;2023-11-19T04:58:36;11.40;99.90
53272;DHT22;39160;48.580;7.756;2023-11-19T05:03:27;11.30;99.90
53272;DHT22;39160;48.580;7.756;2023-11-19T05:08:18;11.40;99.90
53272;DHT22;39160;48.580;7.756;2023-11-19T05:13:08;11.40;99.90
53272;DHT22;39160;48.580;7.756;2023-11-19T05:17:59;11.40;99.90
53272;DHT22;39160;48.580;7.756;2023-11-19T05:22:49;11.50;99.90
53272;DHT22;39160;48.580;7.756;2023-11-19T05:27:41;11.50;99.90
53272;DHT22;39160;48.580;7.756;2023-11-19T05:32:32;11.50;99.90
53272;DHT22;39160;48.580;7.756;2023-11-19T05:37:23;11.50;99.90
53272;DHT22;39160;48.580;7.756;2023-11-19T05:42:13;11.50;99.90
53272;DHT22;39160;48.580;7.756;2023-11-19T05:47:04;11.60;99.90
53272;DHT22;39160;48.580;7.756;2023-11-19T05:51:55;11.60;99.90
53272;DHT22;39160;48.580;7.756;2023-11-19T05:56:49;11.60;99.90
53272;DHT22;39160;48.580;7.756;2023-11-19T06:01:40;11.60;99.90
53272;DHT22;39160;48.580;7.756;2023-11-19T06:06:32;11.60;99.90
53272;DHT22;39160;48.580;7.756;2023-11-19T06:11:22;11.60;99.90
53272;DHT22;39160;48.580;7.756;2023-11-19T06:16:13;11.60;99.90
53272;DHT22;39160;48.580;7.756;2023-11-19T06:21:04;11.70;99.90
53272;DHT22;39160;48.580;7.756;2023-11-19T06:25:55;11.70;99.90
53272;DHT22;39160;48.580;7.756;2023-11-19T06:30:45;11.70;99.90
53272;DHT22;39160;48.580;7.756;2023-11-19T06:35:36;11.70;99.90
53272;DHT22;39160;48.580;7.756;2023-11-19T06:40:27;11.70;99.90
53272;DHT22;39160;48.580;7.756;2023-11-19T06:45:17;11.80;99.90
53272;DHT22;39160;48.580;7.756;2023-11-19T06:50:08;11.80;99.90
53272;DHT22;39160;48.580;7.756;2023-11-19T06:54:59;11.80;99.90
53272;DHT22;39160;48.580;7.756;2023-11-19T06:59:50;11.80;99.90
53272;DHT22;39160;48.580;7.756;2023-11-19T07:04:41;11.90;99.90
53272;DHT22;39160;48.580;7.756;2023-11-19T07:09:31;11.90;99.90
53272;DHT22;39160;48.580;7.756;2023-11-19T07:14:23;12.00;99.90
53272;DHT22;39160;48.580;7.756;2023-11-19T07:19:13;12.00;99.90
53272;DHT22;39160;48.580;7.756;2023-11-19T07:24:05;12.00;99.90
53272;DHT22;39160;48.580;7.756;2023-11-19T07:28:57;12.10;99.90
53272;DHT22;39160;48.580;7.756;2023-11-19T07:33:48;12.10;99.90
53272;DHT22;39160;48.580;7.756;2023-11-19T07:38:39;12.20;99.90
53272;DHT22;39160;48.580;7.756;2023-11-19T07:43:30;12.20;99.90
53272;DHT22;39160;48.580;7.756;2023-11-19T07:48:21;12.20;99.90
53272;DHT22;39160;48.580;7.756;2023-11-19T07:53:13;12.30;99.90
53272;DHT22;39160;48.580;7.756;2023-11-19T07:58:04;12.30;99.90
53272;DHT22;39160;48.580;7.756;2023-11-19T08:02:55;12.30;99.90
53272;DHT22;39160;48.580;7.756;2023-11-19T08:07:46;12.30;99.90
53272;DHT22;39160;48.580;7.756;2023-11-19T08:12:37;12.40;99.90
53272;DHT22;39160;48.580;7.756;2023-11-19T08:17:27;12.40;99.90
53272;DHT22;39160;48.580;7.756;2023-11-19T08:22:18;12.40;99.90
53272;DHT22;39160;48.580;7.756;2023-11-19T08:27:09;12.40;99.90
53272;DHT22;39160;48.580;7.756;2023-11-19T08:32:01;12.40;99.90
53272;DHT22;39160;48.580;7.756;2023-11-19T08:36:52;12.40;99.90
53272;DHT22;39160;48.580;7.756;2023-11-19T08:41:46;12.50;99.90
53272;DHT22;39160;48.580;7.756;2023-11-19T08:46:36;12.50;99.90
53272;DHT22;39160;48.580;7.756;2023-11-19T08:51:27;12.60;99.90
53272;DHT22;39160;48.580;7.756;2023-11-19T08:56:18;12.60;99.90
53272;DHT22;39160;48.580;7.756;2023-11-19T09:01:12;12.60;99.90
53272;DHT22;39160;48.580;7.756;2023-11-19T09:06:02;12.60;99.90
53272;DHT22;39160;48.580;7.756;2023-11-19T09:10:53;12.50;99.90
53272;DHT22;39160;48.580;7.756;2023-11-19T09:15:44;12.60;99.90
53272;DHT22;39160;48.580;7.756;2023-11-19T09:20:34;12.70;99.90
53272;DHT22;39160;48.580;7.756;2023-11-19T09:25:28;12.80;99.90
53272;DHT22;39160;48.580;7.756;2023-11-19T09:30:19;12.90;99.90
53272;DHT22;39160;48.580;7.756;2023-11-19T09:35:10;12.90;99.90
53272;DHT22;39160;48.580;7.756;2023-11-19T09:40:04;13.10;99.90
53272;DHT22;39160;48.580;7.756;2023-11-19T09:44:56;13.10;99.90
53272;DHT22;39160;48.580;7.756;2023-11-19T09:49:51;13.10;99.90
53272;DHT22;39160;48.580;7.756;2023-11-19T09:54:42;13.10;99.90
53272;DHT22;39160;48.580;7.756;2023-11-19T09:59:33;13.20;99.90
53272;DHT22;39160;48.580;7.756;2023-11-19T10:04:24;13.20;99.90
53272;DHT22;39160;48.580;7.756;2023-11-19T10:09:15;13.30;99.90
53272;DHT22;39160;48.580;7.756;2023-11-19T10:14:09;13.30;99.90
53272;DHT22;39160;48.580;7.756;2023-11-19T10:19:03;13.30;99.90
53272;DHT22;39160;48.580;7.756;2023-11-19T10:23:57;13.30;99.90
53272;DHT22;39160;48.580;7.756;2023-11-19T10:28:50;13.30;99.90
53272;DHT22;39160;48.580;7.756;2023-11-19T10:33:41;13.40;99.90
53272;DHT22;39160;48.580;7.756;2023-11-19T10:38:33;13.40;99.90
53272;DHT22;39160;48.580;7.756;2023-11-19T10:43:24;13.50;99.90
53272;DHT22;39160;48.580;7.756;2023-11-19T10:48:15;13.50;99.90
53272;DHT22;39160;48.580;7.756;2023-11-19T10:53:08;13.50;99.90
53272;DHT22;39160;48.580;7.756;2023-11-19T10:58:03;13.50;99.90
53272;DHT22;39160;48.580;7.756;2023-11-19T11:02:59;13.60;99.90
53272;DHT22;39160;48.580;7.756;2023-11-19T11:07:52;13.70;99.90
53272;DHT22;39160;48.580;7.756;2023-11-19T11:12:46;13.70;99.90
53272;DHT22;39160;48.580;7.756;2023-11-19T11:17:39;13.80;99.90
53272;DHT22;39160;48.580;7.756;2023-11-19T11:22:39;13.90;99.90
53272;DHT22;39160;48.580;7.756;2023-11-19T11:27:48;14.10;99.90
53272;DHT22;39160;48.580;7.756;2023-11-19T11:33:03;14.40;99.90
53272;DHT22;39160;48.580;7.756;2023-11-19T11:38:03;14.50;99.90
53272;DHT22;39160;48.580;7.756;2023-11-19T11:42:57;14.60;99.90
53272;DHT22;39160;48.580;7.756;2023-11-19T11:57:49;14.70;99.90
53272;DHT22;39160;48.580;7.756;2023-11-19T12:02:40;14.60;99.90
53272;DHT22;39160;48.580;7.756;2023-11-19T12:07:31;14.60;99.90
53272;DHT22;39160;48.580;7.756;2023-11-19T12:12:23;14.80;99.90
53272;DHT22;39160;48.580;7.756;2023-11-19T12:17:36;14.80;99.90
53272;DHT22;39160;48.580;7.756;2023-11-19T12:22:27;14.90;99.90
53272;DHT22;39160;48.580;7.756;2023-11-19T12:27:18;15.00;99.90
53272;DHT22;39160;48.580;7.756;2023-11-19T12:32:09;15.00;99.90
53272;DHT22;39160;48.580;7.756;2023-11-19T12:37:03;15.10;99.90
53272;DHT22;39160;48.580;7.756;2023-11-19T12:41:54;15.20;99.90
53272;DHT22;39160;48.580;7.756;2023-11-19T12:46:45;15.20;99.90
53272;DHT22;39160;48.580;7.756;2023-11-19T12:51:36;15.30;99.90
53272;DHT22;39160;48.580;7.756;2023-11-19T12:56:30;15.40;99.90
53272;DHT22;39160;48.580;7.756;2023-11-19T13:01:21;15.40;99.90
53272;DHT22;39160;48.580;7.756;2023-11-19T13:06:13;15.40;99.90
53272;DHT22;39160;48.580;7.756;2023-11-19T13:11:05;15.40;99.90
53272;DHT22;39160;48.580;7.756;2023-11-19T13:16:03;15.50;99.90
53272;DHT22;39160;48.580;7.756;2023-11-19T13:20:55;15.50;99.90
53272;DHT22;39160;48.580;7.756;2023-11-19T13:25:48;15.50;99.90
53272;DHT22;39160;48.580;7.756;2023-11-19T13:30:39;15.50;99.90
53272;DHT22;39160;48.580;7.756;2023-11-19T13:35:30;15.40;99.90
53272;DHT22;39160;48.580;7.756;2023-11-19T13:40:20;15.30;99.90
53272;DHT22;39160;48.580;7.756;2023-11-19T13:45:14;15.40;99.90
53272;DHT22;39160;48.580;7.756;2023-11-19T13:50:05;15.40;99.90
53272;DHT22;39160;48.580;7.756;2023-11-19T13:54:56;15.30;99.90
53272;DHT22;39160;48.580;7.756;2023-11-19T13:59:47;15.40;99.90
53272;DHT22;39160;48.580;7.756;2023-11-19T14:04:38;15.30;99.90
53272;DHT22;39160;48.580;7.756;2023-11-19T14:09:29;15.30;99.90
53272;DHT22;39160;48.580;7.756;2023-11-19T14:14:19;15.30;99.90
53272;DHT22;39160;48.580;7.756;2023-11-19T14:19:10;15.30;99.90
53272;DHT22;39160;48.580;7.756;2023-11-19T14:24:01;15.30;99.90
53272;DHT22;39160;48.580;7.756;2023-11-19T14:28:51;15.40;99.90
53272;DHT22;39160;48.580;7.756;2023-11-19T14:33:42;15.30;99.90
53272;DHT22;39160;48.580;7.756;2023-11-19T14:38:33;15.30;99.90
53272;DHT22;39160;48.580;7.756;2023-11-19T14:43:24;15.30;99.90
53272;DHT22;39160;48.580;7.756;2023-11-19T14:48:14;15.30;99.90
53272;DHT22;39160;48.580;7.756;2023-11-19T14:53:08;15.30;99.90
53272;DHT22;39160;48.580;7.756;2023-11-19T14:57:59;15.30;99.90
53272;DHT22;39160;48.580;7.756;2023-11-19T15:02:50;15.30;99.90
53272;DHT22;39160;48.580;7.756;2023-11-19T15:07:41;15.20;99.90
53272;DHT22;39160;48.580;7.756;2023-11-19T15:12:32;15.30;99.90
53272;DHT22;39160;48.580;7.756;2023-11-19T15:17:23;15.20;99.90
53272;DHT22;39160;48.580;7.756;2023-11-19T15:22:14;15.20;99.90
53272;DHT22;39160;48.580;7.756;2023-11-19T15:27:04;15.20;99.90
53272;DHT22;39160;48.580;7.756;2023-11-19T15:31:55;15.20;99.90
53272;DHT22;39160;48.580;7.756;2023-11-19T15:36:46;15.10;99.90
53272;DHT22;39160;48.580;7.756;2023-11-19T15:41:37;15.10;99.90
53272;DHT22;39160;48.580;7.756;2023-11-19T15:46:28;15.10;99.90
53272;DHT22;39160;48.580;7.756;2023-11-19T15:51:19;15.10;99.90
53272;DHT22;39160;48.580;7.756;2023-11-19T15:56:19;15.00;99.90
53272;DHT22;39160;48.580;7.756;2023-11-19T16:01:10;15.00;99.90
53272;DHT22;39160;48.580;7.756;2023-11-19T16:06:01;15.00;99.90
53272;DHT22;39160;48.580;7.756;2023-11-19T16:10:52;15.00;99.90
53272;DHT22;39160;48.580;7.756;2023-11-19T16:15:44;15.00;99.90
53272;DHT22;39160;48.580;7.756;2023-11-19T16:20:34;15.00;99.90
53272;DHT22;39160;48.580;7.756;2023-11-19T16:25:25;15.00;99.90
53272;DHT22;39160;48.580;7.756;2023-11-19T16:30:15;15.00;99.90
53272;DHT22;39160;48.580;7.756;2023-11-19T16:35:06;15.00;99.90
53272;DHT22;39160;48.580;7.756;2023-11-19T16:40:00;15.00;99.90
53272;DHT22;39160;48.580;7.756;2023-11-19T16:44:51;15.00;99.90
53272;DHT22;39160;48.580;7.756;2023-11-19T16:49:42;15.00;99.90
53272;DHT22;39160;48.580;7.756;2023-11-19T16:54:33;15.00;99.90
53272;DHT22;39160;48.580;7.756;2023-11-19T16:59:24;15.00;99.90
53272;DHT22;39160;48.580;7.756;2023-11-19T17:04:14;15.00;99.90
53272;DHT22;39160;48.580;7.756;2023-11-19T17:09:07;15.00;99.90
53272;DHT22;39160;48.580;7.756;2023-11-19T17:14:02;15.10;99.90
53272;DHT22;39160;48.580;7.756;2023-11-19T17:18:53;15.00;99.90
53272;DHT22;39160;48.580;7.756;2023-11-19T17:23:44;15.00;99.90
53272;DHT22;39160;48.580;7.756;2023-11-19T17:28:34;15.10;99.90
53272;DHT22;39160;48.580;7.756;2023-11-19T17:33:26;15.00;99.90
53272;DHT22;39160;48.580;7.756;2023-11-19T17:38:17;15.10;99.90
53272;DHT22;39160;48.580;7.756;2023-11-19T17:43:07;15.00;99.90
53272;DHT22;39160;48.580;7.756;2023-11-19T17:47:58;15.10;99.90
53272;DHT22;39160;48.580;7.756;2023-11-19T17:52:49;15.10;99.90
53272;DHT22;39160;48.580;7.756;2023-11-19T17:57:41;15.10;99.90
53272;DHT22;39160;48.580;7.756;2023-11-19T18:02:32;15.10;99.90
53272;DHT22;39160;48.580;7.756;2023-11-19T18:07:23;15.00;99.90
53272;DHT22;39160;48.580;7.756;2023-11-19T18:12:14;15.10;99.90
53272;DHT22;39160;48.580;7.756;2023-11-19T18:17:05;15.10;99.90
53272;DHT22;39160;48.580;7.756;2023-11-19T18:21:56;15.00;99.90
53272;DHT22;39160;48.580;7.756;2023-11-19T18:26:48;15.00;99.90
53272;DHT22;39160;48.580;7.756;2023-11-19T18:31:38;15.00;99.90
53272;DHT22;39160;48.580;7.756;2023-11-19T18:36:36;15.00;99.90
53272;DHT22;39160;48.580;7.756;2023-11-19T18:41:27;15.00;99.90
53272;DHT22;39160;48.580;7.756;2023-11-19T18:46:18;15.00;99.90
53272;DHT22;39160;48.580;7.756;2023-11-19T18:51:09;15.10;99.90
53272;DHT22;39160;48.580;7.756;2023-11-19T18:56:04;15.00;99.90
53272;DHT22;39160;48.580;7.756;2023-11-19T19:00:57;15.00;99.90
53272;DHT22;39160;48.580;7.756;2023-11-19T19:05:47;15.00;99.90
53272;DHT22;39160;48.580;7.756;2023-11-19T19:10:38;15.00;99.90
53272;DHT22;39160;48.580;7.756;2023-11-19T19:15:30;15.00;99.90
53272;DHT22;39160;48.580;7.756;2023-11-19T19:20:21;14.90;99.90
53272;DHT22;39160;48.580;7.756;2023-11-19T19:25:13;14.90;99.90
53272;DHT22;39160;48.580;7.756;2023-11-19T19:30:05;14.90;99.90
53272;DHT22;39160;48.580;7.756;2023-11-19T19:34:56;15.00;99.90
53272;DHT22;39160;48.580;7.756;2023-11-19T19:39:47;14.90;99.90
53272;DHT22;39160;48.580;7.756;2023-11-19T19:44:38;15.00;99.90
53272;DHT22;39160;48.580;7.756;2023-11-19T19:49:29;14.90;99.90
53272;DHT22;39160;48.580;7.756;2023-11-19T19:54:20;14.90;99.90
53272;DHT22;39160;48.580;7.756;2023-11-19T19:59:14;14.90;99.90
53272;DHT22;39160;48.580;7.756;2023-11-19T20:04:05;14.90;99.90
53272;DHT22;39160;48.580;7.756;2023-11-19T20:08:56;14.90;99.90
53272;DHT22;39160;48.580;7.756;2023-11-19T20:13:47;14.90;99.90
53272;DHT22;39160;48.580;7.756;2023-11-19T20:18:38;14.90;99.90
53272;DHT22;39160;48.580;7.756;2023-11-19T20:23:29;14.90;99.90
53272;DHT22;39160;48.580;7.756;2023-11-19T20:28:19;14.80;99.90
53272;DHT22;39160;48.580;7.756;2023-11-19T20:33:10;14.80;99.90
53272;DHT22;39160;48.580;7.756;2023-11-19T20:38:01;14.80;99.90
53272;DHT22;39160;48.580;7.756;2023-11-19T20:42:54;14.80;99.90
53272;DHT22;39160;48.580;7.756;2023-11-19T20:47:44;14.70;99.90
53272;DHT22;39160;48.580;7.756;2023-11-19T20:52:39;14.70;99.90
53272;DHT22;39160;48.580;7.756;2023-11-19T20:57:31;14.80;99.90
53272;DHT22;39160;48.580;7.756;2023-11-19T21:02:22;14.70;99.90
53272;DHT22;39160;48.580;7.756;2023-11-19T21:07:13;14.70;99.90
53272;DHT22;39160;48.580;7.756;2023-11-19T21:12:04;14.70;99.90
53272;DHT22;39160;48.580;7.756;2023-11-19T21:16:56;14.60;99.90
53272;DHT22;39160;48.580;7.756;2023-11-19T21:21:50;14.60;99.90
53272;DHT22;39160;48.580;7.756;2023-11-19T21:26:41;14.60;99.90
53272;DHT22;39160;48.580;7.756;2023-11-19T21:31:32;14.50;99.90
53272;DHT22;39160;48.580;7.756;2023-11-19T21:36:23;14.50;99.90
53272;DHT22;39160;48.580;7.756;2023-11-19T21:41:15;14.60;99.90
53272;DHT22;39160;48.580;7.756;2023-11-19T21:46:05;14.50;99.90
53272;DHT22;39160;48.580;7.756;2023-11-19T21:50:56;14.60;99.90
53272;DHT22;39160;48.580;7.756;2023-11-19T21:55:48;14.50;99.90
53272;DHT22;39160;48.580;7.756;2023-11-19T22:00:42;14.60;99.90
53272;DHT22;39160;48.580;7.756;2023-11-19T22:05:32;14.70;99.90
53272;DHT22;39160;48.580;7.756;2023-11-19T22:10:23;14.50;99.90
53272;DHT22;39160;48.580;7.756;2023-11-19T22:15:13;14.50;99.90
53272;DHT22;39160;48.580;7.756;2023-11-19T22:20:07;14.60;99.90
53272;DHT22;39160;48.580;7.756;2023-11-19T22:24:58;14.60;99.90
53272;DHT22;39160;48.580;7.756;2023-11-19T22:29:50;14.50;99.90
53272;DHT22;39160;48.580;7.756;2023-11-19T22:34:41;14.50;99.90
53272;DHT22;39160;48.580;7.756;2023-11-19T22:39:33;14.50;99.90
53272;DHT22;39160;48.580;7.756;2023-11-19T22:44:27;14.50;99.90
53272;DHT22;39160;48.580;7.756;2023-11-19T22:49:18;14.50;99.90
53272;DHT22;39160;48.580;7.756;2023-11-19T22:54:09;14.50;99.90
53272;DHT22;39160;48.580;7.756;2023-11-19T22:59:00;14.50;99.90
53272;DHT22;39160;48.580;7.756;2023-11-19T23:03:51;14.50;99.90
53272;DHT22;39160;48.580;7.756;2023-11-19T23:08:42;14.50;99.90
53272;DHT22;39160;48.580;7.756;2023-11-19T23:13:33;14.60;99.90
53272;DHT22;39160;48.580;7.756;2023-11-19T23:18:24;14.60;99.90
53272;DHT22;39160;48.580;7.756;2023-11-19T23:23:15;14.60;99.90
53272;DHT22;39160;48.580;7.756;2023-11-19T23:28:05;14.70;99.90
53272;DHT22;39160;48.580;7.756;2023-11-19T23:32:56;14.70;99.90
53272;DHT22;39160;48.580;7.756;2023-11-19T23:37:47;14.60;99.90
53272;DHT22;39160;48.580;7.756;2023-11-19T23:42:37;14.60;99.90
53272;DHT22;39160;48.580;7.756;2023-11-19T23:47:32;14.70;99.90
53272;DHT22;39160;48.580;7.756;2023-11-19T23:52:22;14.70;99.90
53272;DHT22;39160;48.580;7.756;2023-11-19T23:57:13;14.70;99.90
